createdAt,value
2023-05-17T00:02:16.192Z,100223.58
2023-05-17T00:04:47.839Z,100231.11
2023-05-17T00:07:19.142Z,100233.61
2023-05-17T00:09:50.274Z,100233.04
2023-05-17T00:12:21.329Z,100225.52
2023-05-17T00:14:53.558Z,100226.39
2023-05-17T00:17:24.898Z,100230.13
2023-05-17T00:19:56.005Z,100226.51
2023-05-17T00:22:28.063Z,100225.29
2023-05-17T00:24:59.280Z,100230.69
2023-05-17T00:27:30.637Z,100234.86
2023-05-17T00:30:01.780Z,100237.73
2023-05-17T00:32:33.475Z,100234.35
2023-05-17T00:35:05.458Z,100236.47
2023-05-17T00:37:36.790Z,100242.27
2023-05-17T00:40:10.493Z,100237.15
2023-05-17T00:42:42.020Z,100235.08
2023-05-17T00:45:14.108Z,100237.73
2023-05-17T00:47:45.724Z,100239.41
2023-05-17T00:50:17.412Z,100244.04
2023-05-17T00:52:48.981Z,100239.73
2023-05-17T00:55:21.743Z,100242.31
2023-05-17T00:57:53.512Z,100238.45
2023-05-17T01:00:25.215Z,100240.48
2023-05-17T01:02:56.738Z,100237.08
2023-05-17T01:05:29.190Z,100246.89
2023-05-17T01:08:01.282Z,100243.23
2023-05-17T01:10:45.131Z,100244.69
2023-05-17T01:13:21.372Z,100246.98
2023-05-17T01:16:03.641Z,100253.37
2023-05-17T01:18:46.411Z,100252.62
2023-05-17T01:21:38.752Z,100251.05
2023-05-17T01:24:29.085Z,100255.05
2023-05-17T01:27:04.013Z,100258.76
2023-05-17T01:29:37.334Z,100255.83
2023-05-17T01:32:10.034Z,100261.91
2023-05-17T01:34:42.943Z,100255.13
2023-05-17T01:37:14.673Z,100253.14
2023-05-17T01:39:46.215Z,100253.75
2023-05-17T01:42:22.825Z,100259.95
2023-05-17T01:45:01.501Z,100263.25
2023-05-17T01:47:41.096Z,100269.14
2023-05-17T01:50:15.410Z,100277.14
2023-05-17T01:52:52.354Z,100280.46
2023-05-17T01:55:34.171Z,100280.96
2023-05-17T01:58:08.621Z,100280.13
2023-05-17T02:00:42.999Z,100282.11
2023-05-17T02:03:20.335Z,100281.84
2023-05-17T02:05:54.613Z,100286.60
2023-05-17T02:08:26.125Z,100289.99
2023-05-17T02:10:57.417Z,100290.96
2023-05-17T02:13:28.865Z,100295.95
2023-05-17T02:16:03.531Z,100297.91
2023-05-17T02:18:37.904Z,100296.52
2023-05-17T02:21:10.516Z,100300.52
2023-05-17T02:23:42.043Z,100304.14
2023-05-17T02:26:13.494Z,100306.86
2023-05-17T02:28:44.777Z,100307.08
2023-05-17T02:31:16.195Z,100309.85
2023-05-17T02:33:48.139Z,100311.65
2023-05-17T02:36:21.811Z,100312.88
2023-05-17T02:38:53.110Z,100318.63
2023-05-17T02:41:24.748Z,100318.67
2023-05-17T02:43:56.077Z,100324.09
2023-05-17T02:46:27.862Z,100325.02
2023-05-17T02:48:59.443Z,100328.39
2023-05-17T02:51:31.382Z,100332.02
2023-05-17T02:54:02.938Z,100334.92
2023-05-17T02:56:34.790Z,100336.59
2023-05-17T02:59:06.252Z,100338.61
2023-05-17T03:01:42.395Z,100343.86
2023-05-17T03:04:14.098Z,100347.08
2023-05-17T03:06:45.404Z,100353.63
2023-05-17T03:09:17.024Z,100357.54
2023-05-17T03:11:49.448Z,100359.79
2023-05-17T03:14:27.856Z,100364.47
2023-05-17T03:16:59.068Z,100364.85
2023-05-17T03:19:30.258Z,100367.14
2023-05-17T03:22:02.214Z,100368.45
2023-05-17T03:24:35.270Z,100367.70
2023-05-17T03:27:07.587Z,100369.90
2023-05-17T03:29:39.845Z,100372.34
2023-05-17T03:32:11.360Z,100372.25
2023-05-17T03:34:42.628Z,100372.65
2023-05-17T03:37:14.053Z,100377.73
2023-05-17T03:39:45.871Z,100375.96
2023-05-17T03:42:17.647Z,100380.15
2023-05-17T03:44:49.170Z,100388.31
2023-05-17T03:47:24.027Z,100392.83
2023-05-17T03:49:55.805Z,100394.29
2023-05-17T03:52:28.336Z,100398.74
2023-05-17T03:54:59.564Z,100397.02
2023-05-17T03:57:35.320Z,100396.27
2023-05-17T04:00:11.264Z,100408.87
2023-05-17T04:02:48.287Z,100419.32
2023-05-17T04:05:19.845Z,100418.92
2023-05-17T04:07:51.976Z,100418.44
2023-05-17T04:10:23.495Z,100418.25
2023-05-17T04:12:56.503Z,100426.52
2023-05-17T04:15:28.235Z,100433.18
2023-05-17T04:18:00.061Z,100430.27
2023-05-17T04:20:31.721Z,100434.52
2023-05-17T04:23:03.064Z,100442.48
2023-05-17T04:25:35.722Z,100447.12
2023-05-17T04:28:07.379Z,100451.79
2023-05-17T04:30:38.805Z,100463.33
2023-05-17T04:33:12.072Z,100466.95
2023-05-17T04:35:46.170Z,100480.04
2023-05-17T04:38:17.766Z,100479.39
2023-05-17T04:40:49.099Z,100484.36
2023-05-17T04:43:20.879Z,100485.64
2023-05-17T04:45:57.160Z,100488.16
2023-05-17T04:48:28.913Z,100488.70
2023-05-17T04:51:04.241Z,100486.10
2023-05-17T04:53:36.323Z,100487.77
2023-05-17T04:56:12.950Z,100485.11
2023-05-17T04:58:45.323Z,100481.18
2023-05-17T05:01:17.501Z,100485.91
2023-05-17T05:03:49.098Z,100484.06
2023-05-17T05:06:22.544Z,100488.02
2023-05-17T05:08:54.133Z,100488.77
2023-05-17T05:11:25.692Z,100491.73
2023-05-17T05:13:57.318Z,100494.27
2023-05-17T05:16:29.201Z,100490.83
2023-05-17T05:19:00.590Z,100497.05
2023-05-17T05:21:32.112Z,100503.58
2023-05-17T05:24:05.236Z,100501.79
2023-05-17T05:26:36.702Z,100506.80
2023-05-17T05:29:08.712Z,100502.02
2023-05-17T05:31:40.495Z,100499.85
2023-05-17T05:34:13.497Z,100501.35
2023-05-17T05:36:45.872Z,100497.48
2023-05-17T05:39:18.195Z,100499.20
2023-05-17T05:41:49.594Z,100500.04
2023-05-17T05:44:20.953Z,100505.29
2023-05-17T05:46:53.560Z,100507.65
2023-05-17T05:49:25.133Z,100501.31
2023-05-17T05:51:57.029Z,100500.55
2023-05-17T05:54:29.226Z,100506.28
2023-05-17T05:57:01.006Z,100506.96
2023-05-17T05:59:32.149Z,100510.53
2023-05-17T06:02:04.127Z,100525.23
2023-05-17T06:04:44.608Z,100531.40
2023-05-17T06:07:17.772Z,100542.35
2023-05-17T06:09:48.956Z,100545.92
2023-05-17T06:12:20.984Z,100550.53
2023-05-17T06:14:52.057Z,100550.70
2023-05-17T06:17:23.224Z,100550.34
2023-05-17T06:19:55.070Z,100558.90
2023-05-17T06:22:26.648Z,100560.55
2023-05-17T06:24:58.342Z,100557.29
2023-05-17T06:27:29.487Z,100559.27
2023-05-17T06:30:00.899Z,100561.37
2023-05-17T06:32:32.164Z,100555.72
2023-05-17T06:35:04.491Z,100564.79
2023-05-17T06:37:36.160Z,100571.35
2023-05-17T06:40:15.974Z,100567.15
2023-05-17T06:42:48.215Z,100559.38
2023-05-17T06:45:19.787Z,100560.39
2023-05-17T06:47:51.246Z,100571.21
2023-05-17T06:50:23.558Z,100570.98
2023-05-17T06:52:54.781Z,100573.30
2023-05-17T06:55:26.417Z,100575.20
2023-05-17T06:57:57.575Z,100575.09
2023-05-17T07:00:29.460Z,100573.27
2023-05-17T07:03:01.609Z,100573.91
2023-05-17T07:05:33.547Z,100572.28
2023-05-17T07:08:06.172Z,100576.66
2023-05-17T07:10:37.714Z,100576.35
2023-05-17T07:13:09.343Z,100573.52
2023-05-17T07:15:40.869Z,100578.98
2023-05-17T07:18:12.696Z,100582.11
2023-05-17T07:20:44.788Z,100584.75
2023-05-17T07:23:16.497Z,100583.20
2023-05-17T07:25:47.992Z,100578.56
2023-05-17T07:28:19.769Z,100592.95
2023-05-17T07:30:51.034Z,100594.77
2023-05-17T07:33:22.729Z,100592.67
2023-05-17T07:35:54.005Z,100598.02
2023-05-17T07:38:25.451Z,100601.39
2023-05-17T07:40:56.737Z,100607.27
2023-05-17T07:43:28.533Z,100608.63
2023-05-17T07:46:00.471Z,100613.92
2023-05-17T07:48:32.006Z,100622.65
2023-05-17T07:51:03.475Z,100621.84
2023-05-17T07:53:34.863Z,100627.65
2023-05-17T07:56:09.553Z,100621.50
2023-05-17T07:58:40.929Z,100636.16
2023-05-17T08:01:12.754Z,100631.39
2023-05-17T08:03:48.621Z,100651.10
2023-05-17T08:06:20.630Z,100649.33
2023-05-17T08:08:52.111Z,100650.83
2023-05-17T08:11:23.403Z,100653.41
2023-05-17T08:13:54.814Z,100652.41
2023-05-17T08:16:26.572Z,100662.77
2023-05-17T08:18:58.159Z,100668.51
2023-05-17T08:21:30.092Z,100662.65
2023-05-17T08:24:02.787Z,100672.90
2023-05-17T08:26:34.998Z,100677.77
2023-05-17T08:29:07.023Z,100682.98
2023-05-17T08:31:38.118Z,100678.63
2023-05-17T08:34:09.646Z,100674.55
2023-05-17T08:36:41.062Z,100675.89
2023-05-17T08:39:12.972Z,100671.77
2023-05-17T08:41:44.081Z,100676.90
2023-05-17T08:44:16.746Z,100680.06
2023-05-17T08:46:52.554Z,100677.13
2023-05-17T08:49:26.655Z,100674.21
2023-05-17T08:52:00.837Z,100675.85
2023-05-17T08:54:32.311Z,100691.96
2023-05-17T08:57:06.966Z,100695.33
2023-05-17T08:59:39.886Z,100702.12
2023-05-17T09:02:11.645Z,100702.81
2023-05-17T09:04:43.989Z,100702.64
2023-05-17T09:07:17.256Z,100708.61
2023-05-17T09:09:48.708Z,100709.27
2023-05-17T09:12:19.859Z,100712.43
2023-05-17T09:14:51.623Z,100722.55
2023-05-17T09:17:23.865Z,100716.13
2023-05-17T09:19:56.346Z,100718.42
2023-05-17T09:22:27.991Z,100722.04
2023-05-17T09:25:02.663Z,100725.63
2023-05-17T09:27:34.462Z,100742.76
2023-05-17T09:30:12.407Z,100743.17
2023-05-17T09:32:50.927Z,100752.06
2023-05-17T09:35:29.009Z,100770.38
2023-05-17T09:38:09.044Z,100776.30
2023-05-17T09:40:43.037Z,100778.44
2023-05-17T09:43:18.338Z,100776.77
2023-05-17T09:45:59.117Z,100782.52
2023-05-17T09:48:31.037Z,100795.85
2023-05-17T09:51:03.628Z,100797.66
2023-05-17T09:53:40.121Z,100801.02
2023-05-17T09:56:13.366Z,100811.36
2023-05-17T09:58:46.287Z,100809.48
2023-05-17T10:01:18.502Z,100813.30
2023-05-17T10:03:51.716Z,100816.64
2023-05-17T10:06:39.219Z,100815.05
2023-05-17T10:09:18.686Z,100809.05
2023-05-17T10:11:53.513Z,100813.10
2023-05-17T10:14:32.250Z,100816.66
2023-05-17T10:17:04.155Z,100821.07
2023-05-17T10:19:36.094Z,100830.83
2023-05-17T10:22:21.871Z,100834.07
2023-05-17T10:24:55.110Z,100837.91
2023-05-17T10:27:27.501Z,100845.01
2023-05-17T10:30:00.310Z,100848.81
2023-05-17T10:32:32.434Z,100854.58
2023-05-17T10:35:11.439Z,100861.95
2023-05-17T10:37:44.006Z,100860.65
2023-05-17T10:40:20.398Z,100864.39
2023-05-17T10:42:55.035Z,100867.30
2023-05-17T10:45:28.627Z,100873.64
2023-05-17T10:48:02.195Z,100875.64
2023-05-17T10:50:34.503Z,100881.37
2023-05-17T10:53:09.482Z,100881.41
2023-05-17T10:55:43.205Z,100882.58
2023-05-17T10:58:22.699Z,100881.69
2023-05-17T11:00:56.094Z,100879.70
2023-05-17T11:03:30.517Z,100883.50
2023-05-17T11:06:25.627Z,100878.01
2023-05-17T11:09:16.062Z,100886.50
2023-05-17T11:12:08.391Z,100883.39
2023-05-17T11:14:53.514Z,100892.95
2023-05-17T11:17:26.371Z,100901.10
2023-05-17T11:20:06.339Z,100899.27
2023-05-17T11:22:42.685Z,100901.82
2023-05-17T11:25:15.381Z,100904.00
2023-05-17T11:27:51.925Z,100903.58
2023-05-17T11:30:26.884Z,100907.55
2023-05-17T11:33:04.461Z,100912.88
2023-05-17T11:35:38.690Z,100907.95
2023-05-17T11:38:21.974Z,100911.48
2023-05-17T11:40:56.022Z,100911.91
2023-05-17T11:43:31.192Z,100909.70
2023-05-17T11:46:04.421Z,100911.23
2023-05-17T11:48:37.108Z,100913.23
2023-05-17T11:51:09.615Z,100909.70
2023-05-17T11:53:42.056Z,100912.47
2023-05-17T11:56:13.588Z,100917.77
2023-05-17T11:58:45.787Z,100923.22
2023-05-17T12:01:17.316Z,100924.63
2023-05-17T12:03:48.735Z,100922.02
2023-05-17T12:06:20.868Z,100924.13
2023-05-17T12:08:52.262Z,100923.20
2023-05-17T12:11:24.026Z,100928.89
2023-05-17T12:13:55.383Z,100931.62
2023-05-17T12:16:27.582Z,100930.55
2023-05-17T12:19:00.164Z,100927.17
2023-05-17T12:21:31.404Z,100926.30
2023-05-17T12:24:02.806Z,100929.39
2023-05-17T12:26:34.408Z,100928.71
2023-05-17T12:29:05.967Z,100927.92
2023-05-17T12:31:41.226Z,100926.95
2023-05-17T12:34:14.376Z,100923.80
2023-05-17T12:36:46.904Z,100927.48
2023-05-17T12:39:24.220Z,100925.30
2023-05-17T12:41:56.576Z,100923.21
2023-05-17T12:44:28.235Z,100932.30
2023-05-17T12:46:59.569Z,100935.77
2023-05-17T12:49:30.696Z,100937.13
2023-05-17T12:52:06.631Z,100936.65
2023-05-17T12:54:38.827Z,100933.30
2023-05-17T12:57:16.334Z,100930.09
2023-05-17T12:59:53.349Z,100935.94
2023-05-17T13:02:25.266Z,100937.04
2023-05-17T13:04:56.623Z,100936.27
2023-05-17T13:07:27.765Z,100933.79
2023-05-17T13:09:58.968Z,100927.89
2023-05-17T13:12:30.421Z,100924.73
2023-05-17T13:15:01.754Z,100927.05
2023-05-17T13:17:44.893Z,100926.68
2023-05-17T13:20:16.243Z,100925.47
2023-05-17T13:22:49.818Z,100926.94
2023-05-17T13:25:21.385Z,100930.99
2023-05-17T13:27:55.562Z,100924.26
2023-05-17T13:30:26.960Z,100922.10
2023-05-17T13:32:59.990Z,100920.91
2023-05-17T13:35:33.621Z,100922.33
2023-05-17T13:38:05.277Z,100926.30
2023-05-17T13:40:36.937Z,100930.30
2023-05-17T13:43:09.976Z,100928.88
2023-05-17T13:45:41.654Z,100935.02
2023-05-17T13:48:13.156Z,100936.82
2023-05-17T13:50:44.707Z,100937.93
2023-05-17T13:53:15.910Z,100933.42
2023-05-17T13:55:47.371Z,100938.27
2023-05-17T13:58:18.600Z,100945.59
2023-05-17T14:00:51.761Z,100945.60
2023-05-17T14:03:23.225Z,100943.88
2023-05-17T14:05:54.907Z,100945.16
2023-05-17T14:08:26.960Z,100941.10
2023-05-17T14:10:58.235Z,100937.71
2023-05-17T14:13:30.005Z,100936.76
2023-05-17T14:16:01.071Z,100938.76
2023-05-17T14:18:32.936Z,100937.84
2023-05-17T14:21:04.576Z,100933.55
2023-05-17T14:23:36.274Z,100934.61
2023-05-17T14:26:07.835Z,100937.54
2023-05-17T14:28:39.466Z,100932.67
2023-05-17T14:31:11.250Z,100933.15
2023-05-17T14:33:43.401Z,100929.13
2023-05-17T14:36:14.785Z,100935.33
2023-05-17T14:38:45.963Z,100930.06
2023-05-17T14:41:18.585Z,100927.21
2023-05-17T14:43:50.458Z,100933.57
2023-05-17T14:46:21.798Z,100932.56
2023-05-17T14:48:53.383Z,100936.39
2023-05-17T14:51:25.150Z,100934.86
2023-05-17T14:53:57.045Z,100938.11
2023-05-17T14:56:28.835Z,100936.30
2023-05-17T14:59:00.145Z,100936.14
2023-05-17T15:01:31.903Z,100930.52
2023-05-17T15:04:03.334Z,100926.36
2023-05-17T15:06:34.861Z,100926.27
2023-05-17T15:09:06.590Z,100931.00
2023-05-17T15:11:38.006Z,100927.61
2023-05-17T15:14:09.438Z,100927.15
2023-05-17T15:16:41.532Z,100924.57
2023-05-17T15:19:13.152Z,100924.29
2023-05-17T15:21:44.458Z,100927.38
2023-05-17T15:24:17.760Z,100920.52
2023-05-17T15:26:49.354Z,100921.64
2023-05-17T15:29:20.566Z,100925.46
2023-05-17T15:31:52.050Z,100915.89
2023-05-17T15:34:26.588Z,100915.80
2023-05-17T15:36:58.682Z,100913.39
2023-05-17T15:39:30.064Z,100911.64
2023-05-17T15:42:01.589Z,100906.35
2023-05-17T15:44:33.550Z,100906.08
2023-05-17T15:47:05.001Z,100902.28
2023-05-17T15:49:36.687Z,100904.13
2023-05-17T15:52:09.444Z,100905.95
2023-05-17T15:54:42.235Z,100904.79
2023-05-17T15:57:13.762Z,100900.26
2023-05-17T15:59:44.919Z,100903.21
2023-05-17T16:02:16.029Z,100907.45
2023-05-17T16:04:47.369Z,100908.16
2023-05-17T16:07:19.184Z,100911.31
2023-05-17T16:09:50.823Z,100911.98
2023-05-17T16:12:22.181Z,100910.52
2023-05-17T16:14:53.287Z,100916.43
2023-05-17T16:17:24.460Z,100919.49
2023-05-17T16:19:56.466Z,100917.20
2023-05-17T16:22:28.174Z,100927.83
2023-05-17T16:24:59.708Z,100933.46
2023-05-17T16:27:30.932Z,100938.33
2023-05-17T16:30:02.331Z,100934.02
2023-05-17T16:32:33.894Z,100927.21
2023-05-17T16:35:06.337Z,100931.87
2023-05-17T16:37:38.345Z,100931.04
2023-05-17T16:40:12.516Z,100926.33
2023-05-17T16:42:44.618Z,100928.91
2023-05-17T16:45:16.393Z,100920.29
2023-05-17T16:47:47.694Z,100914.42
2023-05-17T16:50:19.204Z,100919.37
2023-05-17T16:52:50.589Z,100921.01
2023-05-17T16:55:22.044Z,100922.91
2023-05-17T16:57:53.544Z,100917.79
2023-05-17T17:00:25.588Z,100921.16
2023-05-17T17:02:57.098Z,100925.37
2023-05-17T17:05:28.333Z,100923.42
2023-05-17T17:08:00.316Z,100933.81
2023-05-17T17:10:32.329Z,100930.66
2023-05-17T17:13:03.695Z,100928.59
2023-05-17T17:15:35.156Z,100930.80
2023-05-17T17:18:07.033Z,100933.81
2023-05-17T17:20:38.869Z,100929.00
2023-05-17T17:23:10.287Z,100932.71
2023-05-17T17:25:41.585Z,100940.04
2023-05-17T17:28:13.054Z,100948.73
2023-05-17T17:30:44.314Z,100943.73
2023-05-17T17:33:16.230Z,100951.58
2023-05-17T17:35:47.753Z,100954.48
2023-05-17T17:38:19.282Z,100956.29
2023-05-17T17:40:50.488Z,100960.55
2023-05-17T17:43:22.006Z,100960.19
2023-05-17T17:45:53.198Z,100962.20
2023-05-17T17:48:25.628Z,100960.30
2023-05-17T17:50:57.488Z,100962.83
2023-05-17T17:53:28.928Z,100955.27
2023-05-17T17:55:59.856Z,100962.97
2023-05-17T17:58:31.281Z,100959.63
2023-05-17T18:01:02.814Z,100964.84
2023-05-17T18:03:33.782Z,100972.36
2023-05-17T18:06:06.110Z,100969.38
2023-05-17T18:08:37.389Z,100974.29
2023-05-17T18:11:09.025Z,100972.84
2023-05-17T18:13:40.308Z,100977.48
2023-05-17T18:16:13.657Z,100980.11
2023-05-17T18:18:44.955Z,100984.68
2023-05-17T18:21:16.547Z,100981.52
2023-05-17T18:23:47.547Z,100985.81
2023-05-17T18:26:18.541Z,100996.92
2023-05-17T18:28:50.104Z,100995.27
2023-05-17T18:31:21.405Z,100996.58
2023-05-17T18:33:54.974Z,100996.65
2023-05-17T18:36:29.011Z,100994.73
2023-05-17T18:39:01.010Z,101000.85
2023-05-17T18:41:32.331Z,101009.06
2023-05-17T18:44:03.427Z,101006.62
2023-05-17T18:46:34.955Z,101012.38
2023-05-17T18:49:06.582Z,101021.69
2023-05-17T18:51:38.787Z,101029.10
2023-05-17T18:54:11.149Z,101024.75
2023-05-17T18:56:44.078Z,101028.21
2023-05-17T18:59:15.237Z,101036.23
2023-05-17T19:01:46.368Z,101035.72
2023-05-17T19:04:18.493Z,101039.09
2023-05-17T19:06:49.957Z,101034.69
2023-05-17T19:09:21.622Z,101039.16
2023-05-17T19:11:53.146Z,101043.34
2023-05-17T19:14:24.577Z,101041.64
2023-05-17T19:16:57.164Z,101048.64
2023-05-17T19:19:28.479Z,101052.70
2023-05-17T19:22:00.752Z,101048.42
2023-05-17T19:24:32.056Z,101054.99
2023-05-17T19:27:03.482Z,101054.91
2023-05-17T19:29:35.024Z,101059.72
2023-05-17T19:32:07.394Z,101068.09
2023-05-17T19:34:38.954Z,101073.67
2023-05-17T19:37:11.517Z,101081.36
2023-05-17T19:39:44.223Z,101078.58
2023-05-17T19:42:15.698Z,101075.77
2023-05-17T19:44:48.080Z,101076.67
2023-05-17T19:47:25.202Z,101083.69
2023-05-17T19:49:57.948Z,101085.64
2023-05-17T19:52:30.460Z,101094.80
2023-05-17T19:55:02.036Z,101092.55
2023-05-17T19:57:34.610Z,101090.39
2023-05-17T20:00:08.030Z,101092.31
2023-05-17T20:02:40.526Z,101095.48
2023-05-17T20:05:13.401Z,101098.77
2023-05-17T20:07:46.981Z,101099.27
2023-05-17T20:10:22.548Z,101101.28
2023-05-17T20:12:57.668Z,101096.98
2023-05-17T20:15:29.640Z,101106.20
2023-05-17T20:18:02.075Z,101109.52
2023-05-17T20:20:39.752Z,101113.33
2023-05-17T20:23:13.595Z,101112.12
2023-05-17T20:25:45.978Z,101110.20
2023-05-17T20:28:19.667Z,101111.36
2023-05-17T20:30:52.141Z,101106.30
2023-05-17T20:33:26.891Z,101108.48
2023-05-17T20:35:59.473Z,101115.00
2023-05-17T20:38:31.199Z,101121.63
2023-05-17T20:41:02.295Z,101120.36
2023-05-17T20:43:35.124Z,101115.05
2023-05-17T20:46:07.514Z,101114.64
2023-05-17T20:48:39.666Z,101115.13
2023-05-17T20:51:11.997Z,101122.88
2023-05-17T20:53:43.365Z,101122.49
2023-05-17T20:56:17.964Z,101120.54
2023-05-17T20:58:49.554Z,101121.83
2023-05-17T21:01:21.015Z,101125.43
2023-05-17T21:03:52.834Z,101124.09
2023-05-17T21:06:25.483Z,101124.75
2023-05-17T21:08:58.465Z,101132.11
2023-05-17T21:11:29.808Z,101135.73
2023-05-17T21:14:01.013Z,101136.14
2023-05-17T21:16:32.406Z,101132.23
2023-05-17T21:19:04.540Z,101129.05
2023-05-17T21:21:36.811Z,101125.45
2023-05-17T21:24:09.558Z,101129.02
2023-05-17T21:26:41.319Z,101130.11
2023-05-17T21:29:12.692Z,101131.13
2023-05-17T21:31:43.834Z,101132.30
2023-05-17T21:34:15.204Z,101128.34
2023-05-17T21:36:46.575Z,101134.93
2023-05-17T21:39:18.385Z,101133.57
2023-05-17T21:41:49.860Z,101130.30
2023-05-17T21:44:21.284Z,101133.02
2023-05-17T21:46:52.217Z,101130.86
2023-05-17T21:49:23.582Z,101134.95
2023-05-17T21:51:54.824Z,101139.00
2023-05-17T21:54:27.399Z,101138.72
2023-05-17T21:56:58.745Z,101131.48
2023-05-17T21:59:30.097Z,101132.91
2023-05-17T22:02:01.571Z,101134.49
2023-05-17T22:04:32.899Z,101132.43
2023-05-17T22:07:04.013Z,101138.05
2023-05-17T22:09:35.501Z,101136.75
2023-05-17T22:12:08.627Z,101136.73
2023-05-17T22:14:43.472Z,101134.80
2023-05-17T22:17:16.071Z,101129.66
2023-05-17T22:19:47.447Z,101136.66
2023-05-17T22:22:18.539Z,101131.67
2023-05-17T22:24:50.856Z,101136.38
2023-05-17T22:27:23.016Z,101133.93
2023-05-17T22:29:54.531Z,101136.87
2023-05-17T22:32:26.201Z,101125.37
2023-05-17T22:34:57.645Z,101123.59
2023-05-17T22:37:30.421Z,101123.06
2023-05-17T22:40:02.308Z,101122.88
2023-05-17T22:42:33.761Z,101130.50
2023-05-17T22:45:05.463Z,101128.70
2023-05-17T22:47:37.095Z,101114.80
2023-05-17T22:50:12.172Z,101123.95
2023-05-17T22:52:46.605Z,101116.45
2023-05-17T22:55:18.462Z,101123.66
2023-05-17T22:57:49.504Z,101119.29
2023-05-17T23:00:21.911Z,101116.38
2023-05-17T23:02:52.956Z,101112.59
2023-05-17T23:05:24.794Z,101119.17
2023-05-17T23:07:56.123Z,101116.45
2023-05-17T23:10:27.771Z,101117.50
2023-05-17T23:12:59.298Z,101117.50
2023-05-17T23:15:34.466Z,101115.44
2023-05-17T23:18:05.776Z,101120.06
2023-05-17T23:20:37.386Z,101119.40
2023-05-17T23:23:09.090Z,101116.02
2023-05-17T23:25:40.640Z,101112.48
2023-05-17T23:28:11.968Z,101113.99
2023-05-17T23:30:44.747Z,101116.36
2023-05-17T23:33:16.360Z,101113.91
2023-05-17T23:35:47.765Z,101112.61
2023-05-17T23:38:19.048Z,101114.12
2023-05-17T23:40:50.113Z,101111.38
2023-05-17T23:43:21.372Z,101111.05
2023-05-17T23:45:53.711Z,101111.42
2023-05-17T23:48:26.313Z,101113.66
2023-05-17T23:50:57.430Z,101107.02
2023-05-17T23:53:28.825Z,101103.52
2023-05-17T23:56:00.137Z,101101.66
2023-05-17T23:58:31.558Z,101105.67
